createdAt,value
2018-05-15T00:00:43.744Z,6.67
2018-05-15T00:02:49.285Z,7.20
2018-05-15T00:04:54.866Z,6.80
2018-05-15T00:07:01.290Z,6.50
2018-05-15T00:09:07.585Z,7.33
2018-05-15T00:11:24.988Z,7.30
2018-05-15T00:13:36.276Z,7.60
2018-05-15T00:15:41.818Z,7.63
2018-05-15T00:17:47.863Z,7.03
2018-05-15T00:19:53.756Z,7.17
2018-05-15T00:21:58.821Z,7.10
2018-05-15T00:24:05.639Z,7.40
2018-05-15T00:26:13.767Z,7.53
2018-05-15T00:28:22.013Z,6.37
2018-05-15T00:30:28.598Z,7.43
2018-05-15T00:32:34.869Z,7.93
2018-05-15T00:34:41.022Z,7.27
2018-05-15T00:36:46.541Z,7.43
2018-05-15T00:38:52.011Z,6.77
2018-05-15T00:40:57.757Z,7.40
2018-05-15T00:43:03.710Z,7.10
2018-05-15T00:45:11.417Z,7.53
2018-05-15T00:47:19.539Z,7.20
2018-05-15T00:49:25.332Z,7.63
2018-05-15T00:51:32.987Z,6.57
2018-05-15T00:53:38.301Z,7.43
2018-05-15T00:55:47.096Z,7.43
2018-05-15T00:57:52.772Z,7.93
2018-05-15T00:59:58.606Z,8.10
2018-05-15T01:02:04.117Z,7.20
2018-05-15T01:04:12.574Z,7.50
2018-05-15T01:06:19.662Z,7.73
2018-05-15T01:08:27.687Z,8.60
2018-05-15T01:10:33.320Z,7.90
2018-05-15T01:12:38.764Z,7.80
2018-05-15T01:14:44.757Z,8.20
2018-05-15T01:16:49.689Z,8.60
2018-05-15T01:18:55.674Z,8.50
2018-05-15T01:21:01.626Z,7.83
2018-05-15T01:23:07.975Z,8.07
2018-05-15T01:25:17.380Z,8.83
2018-05-15T01:27:25.396Z,8.50
2018-05-15T01:29:32.399Z,8.27
2018-05-15T01:31:38.785Z,8.07
2018-05-15T01:33:44.128Z,8.30
2018-05-15T01:35:50.878Z,8.77
2018-05-15T01:37:56.272Z,8.20
2018-05-15T01:40:01.390Z,8.27
2018-05-15T01:42:08.403Z,7.57
2018-05-15T01:44:16.904Z,7.60
2018-05-15T01:46:24.386Z,8.23
2018-05-15T01:48:30.249Z,8.53
2018-05-15T01:50:35.887Z,7.93
2018-05-15T01:52:41.370Z,8.20
2018-05-15T01:54:47.434Z,8.33
2018-05-15T01:56:52.863Z,8.10
2018-05-15T01:58:58.267Z,7.40
2018-05-15T02:01:04.552Z,8.53
2018-05-15T02:03:12.768Z,8.10
2018-05-15T02:05:19.177Z,7.90
2018-05-15T02:07:25.247Z,8.63
2018-05-15T02:09:31.870Z,8.30
2018-05-15T02:11:37.412Z,8.50
2018-05-15T02:13:42.938Z,8.07
2018-05-15T02:15:48.656Z,9.03
2018-05-15T02:17:54.378Z,8.07
2018-05-15T02:20:00.265Z,9.00
2018-05-15T02:22:06.494Z,8.77
2018-05-15T02:24:15.336Z,8.47
2018-05-15T02:26:21.918Z,8.20
2018-05-15T02:28:31.489Z,8.40
2018-05-15T02:30:37.257Z,8.17
2018-05-15T02:32:43.198Z,8.13
2018-05-15T02:34:49.265Z,8.50
2018-05-15T02:36:54.797Z,9.03
2018-05-15T02:39:00.647Z,8.57
2018-05-15T02:41:07.197Z,8.43
2018-05-15T02:43:15.948Z,9.10
2018-05-15T02:45:22.960Z,10.07
2018-05-15T02:47:28.915Z,8.80
2018-05-15T02:49:34.546Z,8.30
2018-05-15T02:51:40.029Z,9.20
2018-05-15T02:53:45.742Z,8.30
2018-05-15T02:55:51.608Z,8.60
2018-05-15T02:57:57.976Z,9.07
2018-05-15T03:00:03.471Z,8.73
2018-05-15T03:02:11.725Z,9.30
2018-05-15T03:04:19.399Z,8.80
2018-05-15T03:06:26.323Z,9.03
2018-05-15T03:08:32.670Z,8.93
2018-05-15T03:10:38.726Z,9.33
2018-05-15T03:12:44.302Z,9.20
2018-05-15T03:14:49.829Z,8.20
2018-05-15T03:16:55.327Z,9.20
2018-05-15T03:19:01.351Z,8.23
2018-05-15T03:21:08.341Z,9.37
2018-05-15T03:23:16.195Z,8.47
2018-05-15T03:25:22.272Z,9.67
2018-05-15T03:27:28.666Z,8.77
2018-05-15T03:29:34.078Z,8.80
2018-05-15T03:31:39.679Z,9.47
2018-05-15T03:33:45.555Z,8.80
2018-05-15T03:35:51.889Z,8.40
2018-05-15T03:37:57.590Z,9.87
2018-05-15T03:40:03.014Z,9.10
2018-05-15T03:42:10.658Z,8.70
2018-05-15T03:44:17.909Z,8.83
2018-05-15T03:46:24.763Z,8.77
2018-05-15T03:48:31.245Z,9.23
2018-05-15T03:50:37.032Z,8.57
2018-05-15T03:52:42.689Z,9.10
2018-05-15T03:54:48.993Z,9.33
2018-05-15T03:56:54.717Z,8.83
2018-05-15T03:59:00.205Z,9.30
2018-05-15T04:01:17.291Z,8.87
2018-05-15T04:05:40.943Z,8.83
2018-05-15T04:07:57.568Z,8.40
2018-05-15T04:10:03.312Z,9.07
2018-05-15T04:12:12.435Z,9.70
2018-05-15T04:14:19.735Z,9.10
2018-05-15T04:16:27.130Z,9.10
2018-05-15T04:18:33.283Z,9.53
2018-05-15T04:20:40.187Z,9.20
2018-05-15T04:22:47.192Z,9.13
2018-05-15T04:24:54.988Z,8.60
2018-05-15T04:27:01.692Z,9.90
2018-05-15T04:29:09.534Z,9.73
2018-05-15T04:31:19.536Z,9.57
2018-05-15T04:33:29.146Z,32.73
2018-05-15T04:35:36.364Z,23.43
2018-05-15T04:37:44.462Z,12.60
2018-05-15T04:39:51.256Z,11.33
2018-05-15T04:41:58.393Z,10.20
2018-05-15T04:44:05.120Z,21.60
2018-05-15T04:46:14.907Z,47.00
2018-05-15T04:48:23.860Z,89.93
2018-05-15T04:50:30.802Z,24.67
2018-05-15T04:52:38.656Z,12.60
2018-05-15T04:54:45.446Z,53.97
2018-05-15T04:56:52.635Z,136.77
2018-05-15T04:58:59.743Z,150.77
2018-05-15T05:01:08.648Z,96.63
2018-05-15T05:03:18.676Z,124.27
2018-05-15T05:05:26.494Z,237.77
2018-05-15T05:07:35.230Z,208.47
2018-05-15T05:09:41.696Z,301.93
2018-05-15T05:11:49.179Z,233.77
2018-05-15T05:13:56.401Z,369.23
2018-05-15T05:16:03.616Z,280.30
2018-05-15T05:18:12.654Z,209.60
2018-05-15T05:20:23.845Z,196.37
2018-05-15T05:22:30.706Z,89.00
2018-05-15T05:24:37.169Z,197.47
2018-05-15T05:26:43.999Z,194.57
2018-05-15T05:28:50.583Z,62.43
2018-05-15T05:30:57.220Z,32.20
2018-05-15T05:33:04.680Z,17.03
2018-05-15T05:35:14.247Z,13.80
2018-05-15T05:37:23.400Z,13.17
2018-05-15T05:39:31.312Z,11.90
2018-05-15T05:41:38.456Z,11.40
2018-05-15T05:43:45.357Z,10.43
2018-05-15T05:45:51.571Z,111.57
2018-05-15T05:47:58.902Z,278.87
2018-05-15T05:50:07.211Z,177.07
2018-05-15T05:52:17.286Z,294.87
2018-05-15T05:54:25.241Z,269.17
2018-05-15T05:56:32.547Z,682.93
2018-05-15T05:58:40.317Z,533.47
2018-05-15T06:00:48.014Z,327.27
2018-05-15T06:02:54.564Z,68.30
2018-05-15T06:05:01.200Z,21.77
2018-05-15T06:07:10.265Z,16.53
2018-05-15T06:09:19.379Z,13.50
2018-05-15T06:11:26.098Z,12.27
2018-05-15T06:13:33.898Z,12.30
2018-05-15T06:15:42.570Z,11.47
2018-05-15T06:17:50.407Z,10.60
2018-05-15T06:19:57.777Z,16.83
2018-05-15T06:22:05.340Z,69.87
2018-05-15T06:24:15.885Z,14.77
2018-05-15T06:26:27.990Z,12.20
2018-05-15T06:28:37.116Z,11.37
2018-05-15T06:30:45.034Z,10.73
2018-05-15T06:32:51.987Z,11.17
2018-05-15T06:34:58.953Z,10.90
2018-05-15T06:37:06.489Z,10.83
2018-05-15T06:39:17.338Z,12.20
2018-05-15T06:41:27.067Z,10.57
2018-05-15T06:43:34.380Z,10.27
2018-05-15T06:45:41.748Z,10.73
2018-05-15T06:47:51.585Z,10.83
2018-05-15T06:49:57.975Z,11.27
2018-05-15T06:52:04.292Z,14.30
2018-05-15T06:54:14.287Z,61.30
2018-05-15T06:56:22.262Z,669.10
2018-05-15T06:58:29.317Z,831.60
2018-05-15T07:00:36.146Z,505.13
2018-05-15T07:02:43.123Z,470.37
2018-05-15T07:04:50.068Z,490.87
2018-05-15T07:06:57.085Z,673.63
2018-05-15T07:09:03.792Z,440.73
2018-05-15T07:11:14.301Z,751.57
2018-05-15T07:13:25.190Z,430.63
2018-05-15T07:15:31.967Z,497.67
2018-05-15T07:17:38.866Z,86.53
2018-05-15T07:19:45.448Z,24.80
2018-05-15T07:21:52.787Z,18.27
2018-05-15T07:24:00.672Z,30.00
2018-05-15T07:26:09.208Z,89.40
2018-05-15T07:28:19.853Z,24.73
2018-05-15T07:30:28.809Z,49.80
2018-05-15T07:32:36.508Z,297.83
2018-05-15T07:34:43.918Z,138.07
2018-05-15T07:36:52.159Z,37.83
2018-05-15T07:38:59.898Z,16.87
2018-05-15T07:41:08.830Z,15.17
2018-05-15T07:43:18.133Z,13.17
2018-05-15T07:45:26.973Z,71.37
2018-05-15T07:47:33.256Z,546.27
2018-05-15T07:49:38.282Z,128.13
2018-05-15T07:51:43.721Z,28.40
2018-05-15T07:53:49.082Z,16.60
2018-05-15T07:55:54.096Z,13.77
2018-05-15T07:57:59.098Z,13.47
2018-05-15T08:00:04.455Z,12.20
2018-05-15T08:02:11.572Z,12.70
2018-05-15T08:04:20.184Z,11.37
2018-05-15T08:06:27.456Z,11.83
2018-05-15T08:08:33.051Z,10.90
2018-05-15T08:10:39.806Z,11.73
2018-05-15T08:12:46.687Z,11.57
2018-05-15T08:14:52.527Z,10.50
2018-05-15T08:16:58.693Z,10.23
2018-05-15T08:19:04.488Z,10.80
2018-05-15T08:21:12.616Z,10.63
2018-05-15T08:23:19.616Z,10.93
2018-05-15T08:25:26.138Z,10.87
2018-05-15T08:27:31.550Z,10.53
2018-05-15T08:29:36.604Z,10.07
2018-05-15T08:31:41.950Z,9.50
2018-05-15T08:33:47.070Z,10.10
2018-05-15T08:35:52.481Z,35.83
2018-05-15T08:37:58.285Z,553.27
2018-05-15T08:40:03.522Z,53.00
2018-05-15T08:42:11.303Z,17.67
2018-05-15T08:44:18.028Z,11.30
2018-05-15T08:46:23.761Z,10.27
2018-05-15T08:48:28.933Z,10.03
2018-05-15T08:50:34.335Z,10.37
2018-05-15T08:52:39.372Z,9.40
2018-05-15T08:54:44.922Z,9.23
2018-05-15T08:56:50.381Z,9.57
2018-05-15T08:58:55.917Z,9.27
2018-05-15T09:01:01.033Z,9.33
2018-05-15T09:03:06.696Z,9.00
2018-05-15T09:05:15.208Z,8.50
2018-05-15T09:07:22.497Z,8.83
2018-05-15T09:09:28.014Z,9.07
2018-05-15T09:11:33.302Z,360.20
2018-05-15T09:13:38.273Z,260.60
2018-05-15T09:15:43.378Z,512.90
2018-05-15T09:17:48.680Z,276.73
2018-05-15T09:19:53.693Z,28.97
2018-05-15T09:21:58.613Z,14.40
2018-05-15T09:24:03.851Z,241.60
2018-05-15T09:26:10.548Z,290.27
2018-05-15T09:28:17.513Z,650.30
2018-05-15T09:30:23.343Z,493.83
2018-05-15T09:32:28.764Z,605.80
2018-05-15T09:34:33.733Z,697.97
2018-05-15T09:36:39.151Z,586.60
2018-05-15T09:38:44.383Z,434.03
2018-05-15T09:40:49.679Z,63.97
2018-05-15T09:42:55.014Z,20.90
2018-05-15T09:45:00.411Z,13.30
2018-05-15T09:47:05.378Z,398.37
2018-05-15T09:49:14.124Z,388.17
2018-05-15T09:51:20.220Z,35.83
2018-05-15T09:53:27.038Z,13.33
2018-05-15T09:55:33.262Z,341.83
2018-05-15T09:57:38.856Z,100.30
2018-05-15T09:59:43.782Z,37.40
2018-05-15T10:01:49.119Z,13.60
2018-05-15T10:03:54.159Z,346.33
2018-05-15T10:05:59.179Z,392.80
2018-05-15T10:08:04.668Z,83.33
2018-05-15T10:10:12.923Z,16.37
2018-05-15T10:12:20.040Z,11.60
2018-05-15T10:14:26.276Z,10.27
2018-05-15T10:16:31.519Z,9.67
2018-05-15T10:18:36.751Z,10.00
2018-05-15T10:20:42.176Z,9.90
2018-05-15T10:22:47.832Z,10.00
2018-05-15T10:24:53.325Z,9.70
2018-05-15T10:26:58.812Z,9.70
2018-05-15T10:29:04.148Z,9.77
2018-05-15T10:31:12.189Z,9.27
2018-05-15T10:33:20.119Z,9.93
2018-05-15T10:35:25.377Z,8.33
2018-05-15T10:37:30.821Z,9.10
2018-05-15T10:39:36.192Z,10.03
2018-05-15T10:41:41.193Z,9.33
2018-05-15T10:43:46.274Z,9.60
2018-05-15T10:45:51.610Z,9.17
2018-05-15T10:47:57.231Z,9.10
2018-05-15T10:50:02.253Z,9.50
2018-05-15T10:52:08.855Z,9.87
2018-05-15T10:54:16.484Z,519.93
2018-05-15T10:56:22.412Z,469.13
2018-05-15T10:58:28.163Z,154.07
2018-05-15T11:00:33.618Z,17.70
2018-05-15T11:02:38.665Z,76.40
2018-05-15T11:04:44.336Z,464.20
2018-05-15T11:06:49.622Z,100.23
2018-05-15T11:08:54.719Z,16.20
2018-05-15T11:11:02.015Z,10.63
2018-05-15T11:13:09.925Z,11.40
2018-05-15T11:15:17.212Z,145.20
2018-05-15T11:17:25.429Z,292.90
2018-05-15T11:21:51.029Z,540.47
2018-05-15T11:24:24.283Z,405.70
2018-05-15T11:26:29.350Z,411.23
2018-05-15T11:28:34.438Z,31.80
2018-05-15T11:30:40.464Z,15.77
2018-05-15T11:32:46.015Z,11.50
2018-05-15T11:34:51.206Z,110.80
2018-05-15T11:36:57.020Z,156.47
2018-05-15T11:39:02.083Z,817.77
2018-05-15T11:41:08.348Z,466.60
2018-05-15T11:43:14.520Z,145.20
2018-05-15T11:45:20.877Z,22.53
2018-05-15T11:47:26.288Z,14.73
2018-05-15T11:49:33.098Z,13.27
2018-05-15T11:51:38.742Z,11.70
2018-05-15T11:53:44.920Z,11.00
2018-05-15T11:55:51.377Z,10.40
2018-05-15T11:57:58.470Z,10.87
2018-05-15T12:00:04.161Z,10.10
2018-05-15T12:02:13.172Z,10.10
2018-05-15T12:04:23.164Z,615.80
2018-05-15T12:06:30.236Z,107.53
2018-05-15T12:08:39.392Z,22.27
2018-05-15T12:10:47.133Z,12.40
2018-05-15T12:15:06.011Z,726.50
2018-05-15T12:17:15.114Z,24.10
2018-05-15T12:19:22.345Z,16.50
2018-05-15T12:21:29.519Z,12.63
2018-05-15T12:23:35.144Z,525.47
2018-05-15T12:25:40.413Z,31.67
2018-05-15T12:27:47.289Z,999.90
2018-05-15T12:29:52.859Z,76.87
2018-05-15T12:31:59.123Z,20.50
2018-05-15T12:34:05.633Z,11.70
2018-05-15T12:36:12.542Z,10.60
2018-05-15T12:38:21.100Z,9.87
2018-05-15T12:40:26.598Z,9.70
2018-05-15T12:42:31.751Z,10.20
2018-05-15T12:44:36.755Z,9.70
2018-05-15T12:46:42.629Z,9.27
2018-05-15T12:48:47.773Z,9.53
2018-05-15T12:50:54.196Z,10.60
2018-05-15T12:52:59.838Z,9.90
2018-05-15T12:55:09.953Z,8.63
2018-05-15T12:57:17.878Z,8.60
2018-05-15T12:59:24.484Z,9.03
2018-05-15T13:01:30.243Z,8.90
2018-05-15T13:03:35.336Z,7.73
2018-05-15T13:05:40.894Z,9.03
2018-05-15T13:07:45.926Z,8.73
2018-05-15T13:09:50.861Z,8.90
2018-05-15T13:11:56.113Z,86.57
2018-05-15T13:14:01.125Z,574.50
2018-05-15T13:16:06.918Z,397.80
2018-05-15T13:18:15.601Z,309.50
2018-05-15T13:20:23.048Z,160.77
2018-05-15T13:22:28.139Z,341.37
2018-05-15T13:24:33.521Z,100.40
2018-05-15T13:26:39.133Z,22.10
2018-05-15T13:28:44.274Z,21.47
2018-05-15T13:30:50.120Z,12.03
2018-05-15T13:32:55.433Z,11.87
2018-05-15T13:35:01.112Z,11.47
2018-05-15T13:37:08.207Z,10.40
2018-05-15T13:39:15.509Z,9.63
2018-05-15T13:41:22.983Z,10.67
2018-05-15T13:43:34.342Z,9.27
2018-05-15T13:45:39.537Z,9.23
2018-05-15T13:47:44.627Z,9.90
2018-05-15T13:49:50.693Z,9.60
2018-05-15T13:52:00.347Z,9.20
2018-05-15T13:54:06.316Z,10.07
2018-05-15T13:56:15.831Z,8.53
2018-05-15T13:58:23.253Z,9.00
2018-05-15T14:00:29.590Z,9.83
2018-05-15T14:02:35.438Z,9.20
2018-05-15T14:04:40.512Z,9.07
2018-05-15T14:06:45.899Z,8.60
2018-05-15T14:08:51.648Z,8.03
2018-05-15T14:10:56.972Z,8.50
2018-05-15T14:13:02.431Z,8.30
2018-05-15T14:15:09.976Z,7.60
2018-05-15T14:17:17.210Z,9.47
2018-05-15T14:19:23.092Z,7.67
2018-05-15T14:21:28.813Z,8.80
2018-05-15T14:23:34.071Z,7.80
2018-05-15T14:25:39.396Z,7.60
2018-05-15T14:27:44.995Z,8.07
2018-05-15T14:29:50.221Z,7.00
2018-05-15T14:31:55.457Z,8.20
2018-05-15T14:34:01.470Z,7.77
2018-05-15T14:36:07.950Z,6.93
2018-05-15T14:38:16.242Z,7.77
2018-05-15T14:40:24.175Z,7.10
2018-05-15T14:43:44.940Z,7.90
2018-05-15T14:45:50.720Z,7.20
2018-05-15T14:47:55.839Z,6.87
2018-05-15T14:50:01.177Z,6.90
2018-05-15T14:52:07.470Z,6.00
2018-05-15T14:54:15.687Z,7.27
2018-05-15T14:56:22.681Z,6.90
2018-05-15T14:58:29.326Z,6.27
2018-05-15T15:00:34.800Z,6.60
2018-05-15T15:02:40.149Z,6.40
2018-05-15T15:04:45.793Z,6.23
2018-05-15T15:06:51.242Z,6.57
2018-05-15T15:08:56.496Z,6.53
2018-05-15T15:11:02.097Z,6.50
2018-05-15T15:13:08.497Z,5.97
2018-05-15T15:15:17.009Z,5.90
2018-05-15T15:17:23.537Z,5.60
2018-05-15T15:19:28.885Z,5.60
2018-05-15T15:21:34.159Z,5.80
2018-05-15T15:23:39.700Z,5.70
2018-05-15T15:25:45.042Z,6.90
2018-05-15T15:27:50.981Z,6.07
2018-05-15T15:29:56.920Z,6.17
2018-05-15T15:32:02.504Z,5.73
2018-05-15T15:34:09.887Z,5.80
2018-05-15T15:36:18.522Z,6.07
2018-05-15T15:38:24.113Z,5.97
2018-05-15T15:40:29.278Z,5.93
2018-05-15T15:42:35.431Z,5.77
2018-05-15T15:44:40.774Z,4.53
2018-05-15T15:46:48.285Z,5.27
2018-05-15T15:48:53.801Z,5.23
2018-05-15T15:50:59.153Z,5.20
2018-05-15T15:53:04.837Z,4.83
2018-05-15T15:55:14.170Z,20.17
2018-05-15T15:57:21.229Z,5.33
2018-05-15T15:59:26.831Z,5.83
2018-05-15T16:01:34.356Z,5.70
2018-05-15T16:03:39.907Z,5.97
2018-05-15T16:05:45.195Z,5.60
2018-05-15T16:07:51.304Z,5.13
2018-05-15T16:09:56.757Z,5.73
2018-05-15T16:12:02.160Z,5.40
2018-05-15T16:14:08.262Z,5.20
2018-05-15T16:16:16.589Z,6.07
2018-05-15T16:18:25.308Z,6.00
2018-05-15T16:20:30.989Z,6.00
2018-05-15T16:22:36.493Z,5.70
2018-05-15T16:24:41.898Z,4.93
2018-05-15T16:26:47.485Z,5.83
2018-05-15T16:28:52.869Z,5.90
2018-05-15T16:30:58.151Z,5.67
2018-05-15T16:33:04.096Z,4.70
2018-05-15T16:35:11.989Z,5.83
2018-05-15T16:37:19.512Z,6.30
2018-05-15T16:39:27.158Z,5.80
2018-05-15T16:41:32.433Z,158.70
2018-05-15T16:43:37.945Z,168.57
2018-05-15T16:45:44.326Z,244.70
2018-05-15T16:47:49.641Z,202.33
2018-05-15T16:49:55.187Z,131.00
2018-05-15T16:52:00.882Z,114.97
2018-05-15T16:54:06.743Z,108.20
2018-05-15T16:56:14.523Z,72.30
2018-05-15T16:58:22.356Z,83.10
2018-05-15T17:00:27.646Z,280.03
2018-05-15T17:02:34.919Z,293.53
2018-05-15T17:04:41.898Z,260.70
2018-05-15T17:06:47.306Z,202.47
2018-05-15T17:08:53.505Z,232.77
2018-05-15T17:10:59.634Z,154.20
2018-05-15T17:13:05.090Z,134.40
2018-05-15T17:15:13.013Z,141.17
2018-05-15T17:18:22.580Z,140.67
2018-05-15T17:20:28.166Z,132.83
2018-05-15T17:22:33.654Z,121.27
2018-05-15T17:24:38.881Z,100.97
2018-05-15T17:26:44.130Z,98.93
2018-05-15T17:28:49.661Z,60.33
2018-05-15T17:30:59.282Z,58.90
2018-05-15T17:33:04.908Z,41.33
2018-05-15T17:35:13.923Z,44.07
2018-05-15T17:37:22.143Z,48.70
2018-05-15T17:39:28.618Z,47.17
2018-05-15T17:41:34.379Z,41.53
2018-05-15T17:43:39.607Z,40.40
2018-05-15T17:45:44.770Z,35.53
2018-05-15T17:47:50.301Z,35.53
2018-05-15T17:49:55.497Z,30.67
2018-05-15T17:52:05.712Z,119.07
2018-05-15T17:54:14.887Z,490.07
2018-05-15T17:56:24.437Z,221.20
2018-05-15T17:58:29.953Z,224.63
2018-05-15T18:00:36.311Z,143.33
2018-05-15T18:02:41.872Z,107.80
2018-05-15T18:04:47.433Z,122.87
2018-05-15T18:06:54.816Z,101.40
2018-05-15T18:09:00.098Z,99.67
2018-05-15T18:11:06.110Z,79.70
2018-05-15T18:13:14.546Z,64.17
2018-05-15T18:15:21.503Z,63.13
2018-05-15T18:17:27.291Z,57.23
2018-05-15T18:19:32.901Z,47.33
2018-05-15T18:21:38.443Z,37.60
2018-05-15T18:23:43.622Z,33.90
2018-05-15T18:25:49.131Z,30.33
2018-05-15T18:27:54.599Z,25.30
2018-05-15T18:29:59.914Z,24.10
2018-05-15T18:32:05.852Z,18.63
2018-05-15T18:34:14.863Z,17.37
2018-05-15T18:36:21.389Z,17.37
2018-05-15T18:38:28.485Z,13.50
2018-05-15T18:40:33.912Z,15.07
2018-05-15T18:42:39.791Z,14.60
2018-05-15T18:44:45.531Z,12.80
2018-05-15T18:46:50.900Z,13.60
2018-05-15T18:48:56.093Z,12.20
2018-05-15T18:51:01.784Z,11.13
2018-05-15T18:53:07.983Z,10.43
2018-05-15T18:55:16.592Z,9.83
2018-05-15T18:57:24.118Z,27.43
2018-05-15T18:59:30.102Z,227.80
2018-05-15T19:01:35.849Z,371.77
2018-05-15T19:03:42.605Z,346.03
2018-05-15T19:05:48.261Z,284.60
2018-05-15T19:07:54.100Z,209.80
2018-05-15T19:09:59.766Z,172.13
2018-05-15T19:12:05.568Z,145.20
2018-05-15T19:14:15.363Z,110.13
2018-05-15T19:16:23.525Z,95.47
2018-05-15T19:18:29.924Z,87.60
2018-05-15T19:20:35.840Z,74.00
2018-05-15T19:22:42.609Z,65.23
2018-05-15T19:24:48.246Z,48.97
2018-05-15T19:26:53.603Z,51.50
2018-05-15T19:29:00.095Z,43.97
2018-05-15T19:31:07.043Z,53.40
2018-05-15T19:33:19.412Z,42.33
2018-05-15T19:35:32.395Z,230.17
2018-05-15T19:37:39.047Z,557.53
2018-05-15T19:39:44.935Z,441.43
2018-05-15T19:41:51.060Z,351.40
2018-05-15T19:43:57.546Z,209.77
2018-05-15T19:46:03.793Z,169.40
2018-05-15T19:48:10.835Z,143.07
2018-05-15T19:50:19.513Z,127.13
2018-05-15T19:52:25.585Z,113.20
2018-05-15T19:54:32.593Z,89.70
2018-05-15T19:56:39.823Z,83.77
2018-05-15T19:58:45.850Z,71.60
2018-05-15T20:00:51.776Z,131.73
2018-05-15T20:02:58.915Z,220.17
2018-05-15T20:05:04.182Z,254.53
2018-05-15T20:07:13.434Z,296.57
2018-05-15T20:09:20.132Z,232.43
2018-05-15T20:11:26.710Z,192.57
2018-05-15T20:13:33.900Z,155.67
2018-05-15T20:15:39.347Z,124.03
2018-05-15T20:17:45.495Z,119.57
2018-05-15T20:19:53.083Z,109.73
2018-05-15T20:22:00.173Z,99.47
2018-05-15T20:24:05.987Z,78.37
2018-05-15T20:26:16.016Z,101.30
2018-05-15T20:28:23.240Z,84.63
2018-05-15T20:30:28.887Z,90.20
2018-05-15T20:32:34.447Z,66.70
2018-05-15T20:34:39.781Z,66.63
2018-05-15T20:36:45.212Z,64.23
2018-05-15T20:38:50.930Z,54.83
2018-05-15T20:40:56.227Z,51.60
2018-05-15T20:43:01.442Z,52.07
2018-05-15T20:45:09.092Z,43.77
2018-05-15T20:47:17.075Z,51.13
2018-05-15T20:49:23.523Z,47.30
2018-05-15T20:51:29.209Z,40.43
2018-05-15T20:53:34.461Z,37.07
2018-05-15T20:55:40.509Z,37.10
2018-05-15T20:57:46.069Z,34.33
2018-05-15T20:59:51.382Z,33.00
2018-05-15T21:01:56.695Z,33.00
2018-05-15T21:04:03.385Z,29.30
2018-05-15T21:06:11.421Z,30.03
2018-05-15T21:08:19.027Z,26.97
2018-05-15T21:10:25.225Z,24.07
2018-05-15T21:12:30.341Z,23.90
2018-05-15T21:14:35.624Z,23.20
2018-05-15T21:16:41.611Z,22.30
2018-05-15T21:18:46.785Z,19.10
2018-05-15T21:20:52.543Z,18.13
2018-05-15T21:22:58.927Z,20.23
2018-05-15T21:25:04.251Z,18.20
2018-05-15T21:27:12.426Z,18.30
2018-05-15T21:29:19.609Z,16.30
2018-05-15T21:31:26.303Z,16.23
2018-05-15T21:33:31.530Z,14.63
2018-05-15T21:35:37.033Z,15.17
2018-05-15T21:37:42.836Z,14.60
2018-05-15T21:39:48.609Z,14.40
2018-05-15T21:41:54.549Z,12.20
2018-05-15T21:44:00.593Z,13.33
2018-05-15T21:46:05.833Z,13.17
2018-05-15T21:48:15.600Z,12.80
2018-05-15T21:50:23.638Z,11.70
2018-05-15T21:52:28.807Z,11.80
2018-05-15T21:54:34.301Z,11.77
2018-05-15T21:56:39.741Z,11.43
2018-05-15T21:58:45.026Z,11.20
2018-05-15T22:00:50.583Z,11.57
2018-05-15T22:02:55.869Z,11.50
2018-05-15T22:05:01.392Z,11.70
2018-05-15T22:07:07.898Z,11.23
2018-05-15T22:09:16.609Z,11.00
2018-05-15T22:11:21.238Z,10.03
2018-05-15T22:13:36.829Z,9.63
2018-05-15T22:15:52.945Z,9.87
2018-05-15T22:18:09.358Z,9.20
2018-05-15T22:20:26.141Z,9.40
2018-05-15T22:22:29.673Z,8.53
2018-05-15T22:24:35.282Z,8.30
2018-05-15T22:26:41.390Z,8.53
2018-05-15T22:28:46.659Z,9.13
2018-05-15T22:30:52.295Z,8.57
2018-05-15T22:32:57.856Z,8.10
2018-05-15T22:35:03.834Z,8.07
2018-05-15T22:37:12.129Z,7.53
2018-05-15T22:39:19.019Z,6.90
2018-05-15T22:41:25.596Z,7.57
2018-05-15T22:43:32.228Z,7.33
2018-05-15T22:45:37.764Z,6.97
2018-05-15T22:47:44.150Z,6.63
2018-05-15T22:49:49.827Z,6.53
2018-05-15T22:51:55.834Z,6.10
2018-05-15T22:54:01.718Z,5.90
2018-05-15T22:56:07.534Z,6.53
2018-05-15T22:58:16.453Z,6.20
2018-05-15T23:00:22.687Z,5.37
2018-05-15T23:02:28.897Z,6.27
2018-05-15T23:04:35.154Z,5.90
2018-05-15T23:06:40.745Z,6.10
2018-05-15T23:08:46.711Z,5.67
2018-05-15T23:10:52.856Z,5.90
2018-05-15T23:12:58.838Z,5.33
2018-05-15T23:15:04.815Z,5.67
2018-05-15T23:17:13.922Z,5.50
2018-05-15T23:19:20.701Z,5.47
2018-05-15T23:21:27.986Z,5.43
2018-05-15T23:23:34.081Z,5.23
2018-05-15T23:25:39.904Z,5.60
2018-05-15T23:27:45.694Z,6.77
2018-05-15T23:29:52.005Z,5.33
2018-05-15T23:31:57.978Z,6.37
2018-05-15T23:34:09.154Z,5.90
2018-05-15T23:36:18.547Z,6.87
2018-05-15T23:38:25.245Z,5.57
2018-05-15T23:40:31.370Z,5.87
2018-05-15T23:42:37.350Z,6.00
2018-05-15T23:44:42.816Z,5.20
2018-05-15T23:46:48.840Z,6.07
2018-05-15T23:48:55.011Z,5.37
2018-05-15T23:51:01.230Z,6.23
2018-05-15T23:53:06.766Z,5.97
2018-05-15T23:55:14.945Z,5.87
2018-05-15T23:57:23.185Z,5.67
2018-05-15T23:59:28.513Z,5.43
